sensor_id;sensor_type;location;lat;lon;timestamp;P1;durP1;ratioP1;P2;durP2;ratioP2
9324;SDS011;4701;51.566;6.776;2023-01-20T07:03:03;38.53;;;21.47;;
9324;SDS011;4701;51.566;6.776;2023-01-20T07:05:05;45.93;;;23.47;;
9324;SDS011;4701;51.566;6.776;2023-01-20T07:07:09;42.30;;;23.03;;
9324;SDS011;4701;51.566;6.776;2023-01-20T07:09:12;41.47;;;23.70;;
9324;SDS011;4701;51.566;6.776;2023-01-20T07:11:14;44.20;;;24.50;;
9324;SDS011;4701;51.566;6.776;2023-01-20T07:13:16;45.23;;;23.90;;
9324;SDS011;4701;51.566;6.776;2023-01-20T07:15:18;46.70;;;25.73;;
9324;SDS011;4701;51.566;6.776;2023-01-20T07:17:20;45.97;;;26.40;;
9324;SDS011;4701;51.566;6.776;2023-01-20T07:19:23;49.97;;;25.50;;
9324;SDS011;4701;51.566;6.776;2023-01-20T07:21:25;50.87;;;27.00;;
9324;SDS011;4701;51.566;6.776;2023-01-20T07:23:27;48.90;;;26.77;;
9324;SDS011;4701;51.566;6.776;2023-01-20T07:25:31;46.37;;;25.10;;
9324;SDS011;4701;51.566;6.776;2023-01-20T07:27:33;45.90;;;26.37;;
9324;SDS011;4701;51.566;6.776;2023-01-20T07:29:35;40.17;;;23.67;;
9324;SDS011;4701;51.566;6.776;2023-01-20T07:31:37;43.40;;;25.33;;
9324;SDS011;4701;51.566;6.776;2023-01-20T07:33:39;40.67;;;24.47;;
9324;SDS011;4701;51.566;6.776;2023-01-20T07:35:42;39.60;;;24.77;;
9324;SDS011;4701;51.566;6.776;2023-01-20T07:37:44;39.43;;;23.83;;
9324;SDS011;4701;51.566;6.776;2023-01-20T07:39:46;39.47;;;23.57;;
9324;SDS011;4701;51.566;6.776;2023-01-20T07:41:48;37.53;;;23.03;;
9324;SDS011;4701;51.566;6.776;2023-01-20T07:43:50;37.67;;;22.67;;
9324;SDS011;4701;51.566;6.776;2023-01-20T07:45:53;40.33;;;24.00;;
9324;SDS011;4701;51.566;6.776;2023-01-20T07:47:56;35.77;;;23.47;;
9324;SDS011;4701;51.566;6.776;2023-01-20T07:49:57;42.23;;;24.13;;
9324;SDS011;4701;51.566;6.776;2023-01-20T07:52:01;41.13;;;23.23;;
9324;SDS011;4701;51.566;6.776;2023-01-20T07:54:03;37.73;;;22.73;;
9324;SDS011;4701;51.566;6.776;2023-01-20T07:56:05;37.63;;;21.30;;
9324;SDS011;4701;51.566;6.776;2023-01-20T07:58:08;36.57;;;21.70;;
9324;SDS011;4701;51.566;6.776;2023-01-20T08:00:10;38.37;;;21.93;;
9324;SDS011;4701;51.566;6.776;2023-01-20T08:02:13;39.73;;;22.57;;
9324;SDS011;4701;51.566;6.776;2023-01-20T08:04:14;34.27;;;21.60;;
9324;SDS011;4701;51.566;6.776;2023-01-20T08:06:19;34.87;;;21.73;;
9324;SDS011;4701;51.566;6.776;2023-01-20T08:08:23;41.67;;;22.67;;
9324;SDS011;4701;51.566;6.776;2023-01-20T08:10:27;37.63;;;22.27;;
9324;SDS011;4701;51.566;6.776;2023-01-20T08:12:29;35.17;;;21.60;;
9324;SDS011;4701;51.566;6.776;2023-01-20T08:14:31;36.40;;;19.90;;
9324;SDS011;4701;51.566;6.776;2023-01-20T08:16:33;39.10;;;22.33;;
9324;SDS011;4701;51.566;6.776;2023-01-20T08:18:35;39.00;;;22.27;;
9324;SDS011;4701;51.566;6.776;2023-01-20T08:20:38;36.70;;;20.57;;
9324;SDS011;4701;51.566;6.776;2023-01-20T08:22:40;32.43;;;20.80;;
9324;SDS011;4701;51.566;6.776;2023-01-20T08:24:43;33.00;;;20.50;;
9324;SDS011;4701;51.566;6.776;2023-01-20T08:26:45;37.80;;;22.10;;
9324;SDS011;4701;51.566;6.776;2023-01-20T08:28:47;36.03;;;22.57;;
9324;SDS011;4701;51.566;6.776;2023-01-20T08:30:49;41.17;;;21.83;;
9324;SDS011;4701;51.566;6.776;2023-01-20T08:32:51;38.70;;;23.27;;
9324;SDS011;4701;51.566;6.776;2023-01-20T08:34:53;41.77;;;22.23;;
9324;SDS011;4701;51.566;6.776;2023-01-20T08:36:55;36.67;;;23.80;;
9324;SDS011;4701;51.566;6.776;2023-01-20T08:38:57;37.63;;;22.87;;
9324;SDS011;4701;51.566;6.776;2023-01-20T08:41:06;37.37;;;21.93;;
9324;SDS011;4701;51.566;6.776;2023-01-20T08:43:08;35.80;;;21.73;;
9324;SDS011;4701;51.566;6.776;2023-01-20T08:45:11;36.57;;;21.73;;
9324;SDS011;4701;51.566;6.776;2023-01-20T08:47:13;34.20;;;21.33;;
9324;SDS011;4701;51.566;6.776;2023-01-20T08:49:15;32.13;;;21.50;;
9324;SDS011;4701;51.566;6.776;2023-01-20T08:51:18;31.40;;;20.23;;
9324;SDS011;4701;51.566;6.776;2023-01-20T08:53:21;34.33;;;21.33;;
9324;SDS011;4701;51.566;6.776;2023-01-20T08:55:23;34.70;;;22.53;;
9324;SDS011;4701;51.566;6.776;2023-01-20T08:57:27;33.47;;;21.37;;
9324;SDS011;4701;51.566;6.776;2023-01-20T08:59:29;40.07;;;23.27;;
9324;SDS011;4701;51.566;6.776;2023-01-20T09:01:32;38.90;;;23.07;;
9324;SDS011;4701;51.566;6.776;2023-01-20T09:03:37;40.03;;;23.97;;
9324;SDS011;4701;51.566;6.776;2023-01-20T09:05:40;38.07;;;23.77;;
9324;SDS011;4701;51.566;6.776;2023-01-20T09:07:42;42.67;;;25.60;;
9324;SDS011;4701;51.566;6.776;2023-01-20T09:09:45;41.37;;;26.10;;
9324;SDS011;4701;51.566;6.776;2023-01-20T09:11:47;41.70;;;24.90;;
9324;SDS011;4701;51.566;6.776;2023-01-20T09:13:54;47.93;;;26.47;;
9324;SDS011;4701;51.566;6.776;2023-01-20T09:15:56;39.17;;;23.50;;
9324;SDS011;4701;51.566;6.776;2023-01-20T09:17:58;43.67;;;23.90;;
9324;SDS011;4701;51.566;6.776;2023-01-20T09:20:00;35.53;;;21.10;;
9324;SDS011;4701;51.566;6.776;2023-01-20T09:22:03;36.13;;;21.90;;
9324;SDS011;4701;51.566;6.776;2023-01-20T09:24:05;36.60;;;22.10;;
9324;SDS011;4701;51.566;6.776;2023-01-20T09:26:08;34.47;;;21.60;;
9324;SDS011;4701;51.566;6.776;2023-01-20T09:28:10;35.17;;;21.70;;
9324;SDS011;4701;51.566;6.776;2023-01-20T09:30:15;33.80;;;21.57;;
9324;SDS011;4701;51.566;6.776;2023-01-20T09:32:17;38.03;;;22.17;;
9324;SDS011;4701;51.566;6.776;2023-01-20T09:34:19;32.10;;;21.00;;
9324;SDS011;4701;51.566;6.776;2023-01-20T09:36:23;37.20;;;22.53;;
9324;SDS011;4701;51.566;6.776;2023-01-20T09:38:26;40.97;;;23.17;;
9324;SDS011;4701;51.566;6.776;2023-01-20T09:40:47;43.77;;;24.53;;
9324;SDS011;4701;51.566;6.776;2023-01-20T09:43:21;44.57;;;27.53;;
9324;SDS011;4701;51.566;6.776;2023-01-20T09:45:51;46.53;;;26.87;;
9324;SDS011;4701;51.566;6.776;2023-01-20T09:48:00;44.43;;;25.27;;
9324;SDS011;4701;51.566;6.776;2023-01-20T09:50:20;37.80;;;23.17;;
9324;SDS011;4701;51.566;6.776;2023-01-20T09:52:46;41.90;;;23.90;;
9324;SDS011;4701;51.566;6.776;2023-01-20T09:55:04;41.87;;;23.43;;
9324;SDS011;4701;51.566;6.776;2023-01-20T09:57:11;37.10;;;23.30;;
9324;SDS011;4701;51.566;6.776;2023-01-20T09:59:15;38.13;;;23.63;;
9324;SDS011;4701;51.566;6.776;2023-01-20T10:01:26;39.50;;;24.10;;
9324;SDS011;4701;51.566;6.776;2023-01-20T10:03:34;36.67;;;23.27;;
9324;SDS011;4701;51.566;6.776;2023-01-20T10:05:40;40.50;;;23.87;;
9324;SDS011;4701;51.566;6.776;2023-01-20T10:07:47;37.70;;;23.13;;
9324;SDS011;4701;51.566;6.776;2023-01-20T10:09:56;35.50;;;23.07;;
9324;SDS011;4701;51.566;6.776;2023-01-20T10:12:04;38.63;;;23.13;;
9324;SDS011;4701;51.566;6.776;2023-01-20T10:14:14;33.50;;;21.67;;
9324;SDS011;4701;51.566;6.776;2023-01-20T10:16:23;36.13;;;22.97;;
9324;SDS011;4701;51.566;6.776;2023-01-20T10:18:35;42.67;;;23.27;;
9324;SDS011;4701;51.566;6.776;2023-01-20T10:20:41;38.47;;;23.47;;
9324;SDS011;4701;51.566;6.776;2023-01-20T10:22:48;40.40;;;24.60;;
9324;SDS011;4701;51.566;6.776;2023-01-20T10:24:54;38.23;;;24.10;;
9324;SDS011;4701;51.566;6.776;2023-01-20T10:27:00;38.43;;;24.07;;
9324;SDS011;4701;51.566;6.776;2023-01-20T10:29:04;34.93;;;22.60;;
9324;SDS011;4701;51.566;6.776;2023-01-20T10:31:11;40.23;;;21.53;;
9324;SDS011;4701;51.566;6.776;2023-01-20T10:33:22;33.27;;;21.30;;
9324;SDS011;4701;51.566;6.776;2023-01-20T10:35:31;36.37;;;22.17;;
9324;SDS011;4701;51.566;6.776;2023-01-20T10:37:37;30.77;;;19.60;;
9324;SDS011;4701;51.566;6.776;2023-01-20T10:39:41;35.90;;;21.33;;
9324;SDS011;4701;51.566;6.776;2023-01-20T10:41:48;32.07;;;20.40;;
9324;SDS011;4701;51.566;6.776;2023-01-20T10:43:53;32.03;;;20.67;;
9324;SDS011;4701;51.566;6.776;2023-01-20T10:46:00;32.43;;;20.93;;
9324;SDS011;4701;51.566;6.776;2023-01-20T10:48:24;29.43;;;18.90;;
9324;SDS011;4701;51.566;6.776;2023-01-20T10:50:42;30.93;;;19.43;;
9324;SDS011;4701;51.566;6.776;2023-01-20T10:52:56;31.00;;;19.67;;
9324;SDS011;4701;51.566;6.776;2023-01-20T10:55:09;29.70;;;19.10;;
9324;SDS011;4701;51.566;6.776;2023-01-20T10:57:20;28.80;;;19.10;;
9324;SDS011;4701;51.566;6.776;2023-01-20T10:59:25;29.87;;;18.07;;
9324;SDS011;4701;51.566;6.776;2023-01-20T11:01:31;31.17;;;18.30;;
9324;SDS011;4701;51.566;6.776;2023-01-20T11:03:36;29.87;;;19.50;;
9324;SDS011;4701;51.566;6.776;2023-01-20T11:05:41;27.83;;;19.57;;
9324;SDS011;4701;51.566;6.776;2023-01-20T11:07:44;27.67;;;18.13;;
9324;SDS011;4701;51.566;6.776;2023-01-20T11:09:47;28.67;;;19.67;;
9324;SDS011;4701;51.566;6.776;2023-01-20T11:11:49;30.10;;;19.07;;
9324;SDS011;4701;51.566;6.776;2023-01-20T11:13:53;30.43;;;20.13;;
9324;SDS011;4701;51.566;6.776;2023-01-20T11:15:58;33.00;;;20.17;;
9324;SDS011;4701;51.566;6.776;2023-01-20T11:18:19;30.93;;;18.90;;
9324;SDS011;4701;51.566;6.776;2023-01-20T11:20:28;31.90;;;18.97;;
9324;SDS011;4701;51.566;6.776;2023-01-20T11:22:32;30.37;;;18.57;;
9324;SDS011;4701;51.566;6.776;2023-01-20T11:24:36;30.23;;;17.53;;
9324;SDS011;4701;51.566;6.776;2023-01-20T11:26:43;29.07;;;18.07;;
9324;SDS011;4701;51.566;6.776;2023-01-20T11:28:49;29.23;;;18.77;;
9324;SDS011;4701;51.566;6.776;2023-01-20T11:30:54;32.33;;;20.20;;
9324;SDS011;4701;51.566;6.776;2023-01-20T11:33:06;34.57;;;19.70;;
9324;SDS011;4701;51.566;6.776;2023-01-20T11:35:19;26.80;;;18.23;;
9324;SDS011;4701;51.566;6.776;2023-01-20T11:37:24;28.70;;;19.17;;
9324;SDS011;4701;51.566;6.776;2023-01-20T11:39:27;32.67;;;19.40;;
9324;SDS011;4701;51.566;6.776;2023-01-20T11:41:31;34.47;;;19.33;;
9324;SDS011;4701;51.566;6.776;2023-01-20T11:43:34;27.67;;;18.40;;
9324;SDS011;4701;51.566;6.776;2023-01-20T11:45:37;25.97;;;18.17;;
9324;SDS011;4701;51.566;6.776;2023-01-20T11:47:39;28.90;;;17.97;;
9324;SDS011;4701;51.566;6.776;2023-01-20T11:49:42;28.67;;;17.23;;
9324;SDS011;4701;51.566;6.776;2023-01-20T11:51:48;28.07;;;18.07;;
9324;SDS011;4701;51.566;6.776;2023-01-20T11:54:06;27.10;;;16.53;;
9324;SDS011;4701;51.566;6.776;2023-01-20T11:56:13;24.50;;;14.53;;
9324;SDS011;4701;51.566;6.776;2023-01-20T11:58:24;26.77;;;17.00;;
9324;SDS011;4701;51.566;6.776;2023-01-20T12:00:29;22.83;;;15.37;;
9324;SDS011;4701;51.566;6.776;2023-01-20T12:02:35;20.80;;;14.67;;
9324;SDS011;4701;51.566;6.776;2023-01-20T12:04:40;21.50;;;14.70;;
9324;SDS011;4701;51.566;6.776;2023-01-20T12:06:51;23.37;;;15.10;;
9324;SDS011;4701;51.566;6.776;2023-01-20T12:08:57;23.27;;;15.07;;
9324;SDS011;4701;51.566;6.776;2023-01-20T12:11:05;20.90;;;14.97;;
9324;SDS011;4701;51.566;6.776;2023-01-20T12:13:11;20.50;;;14.73;;
9324;SDS011;4701;51.566;6.776;2023-01-20T12:15:20;22.90;;;14.57;;
9324;SDS011;4701;51.566;6.776;2023-01-20T12:17:29;22.20;;;15.33;;
9324;SDS011;4701;51.566;6.776;2023-01-20T12:19:54;22.33;;;14.97;;
9324;SDS011;4701;51.566;6.776;2023-01-20T12:22:08;25.93;;;16.47;;
9324;SDS011;4701;51.566;6.776;2023-01-20T12:24:15;25.50;;;15.47;;
9324;SDS011;4701;51.566;6.776;2023-01-20T12:26:23;20.70;;;14.50;;
9324;SDS011;4701;51.566;6.776;2023-01-20T12:28:30;20.83;;;14.70;;
9324;SDS011;4701;51.566;6.776;2023-01-20T12:30:41;22.17;;;14.40;;
9324;SDS011;4701;51.566;6.776;2023-01-20T12:32:51;22.60;;;14.30;;
9324;SDS011;4701;51.566;6.776;2023-01-20T12:34:54;20.80;;;13.90;;
9324;SDS011;4701;51.566;6.776;2023-01-20T12:37:05;18.40;;;13.70;;
9324;SDS011;4701;51.566;6.776;2023-01-20T12:39:25;19.97;;;12.90;;
9324;SDS011;4701;51.566;6.776;2023-01-20T12:41:39;17.90;;;12.07;;
9324;SDS011;4701;51.566;6.776;2023-01-20T12:43:51;22.17;;;13.70;;
9324;SDS011;4701;51.566;6.776;2023-01-20T12:46:08;22.67;;;14.10;;
9324;SDS011;4701;51.566;6.776;2023-01-20T12:48:28;20.27;;;14.03;;
9324;SDS011;4701;51.566;6.776;2023-01-20T12:50:45;19.77;;;13.53;;
9324;SDS011;4701;51.566;6.776;2023-01-20T12:53:05;27.03;;;15.37;;
9324;SDS011;4701;51.566;6.776;2023-01-20T12:55:21;22.00;;;14.53;;
9324;SDS011;4701;51.566;6.776;2023-01-20T12:57:34;19.37;;;13.50;;
9324;SDS011;4701;51.566;6.776;2023-01-20T12:59:48;20.73;;;13.87;;
9324;SDS011;4701;51.566;6.776;2023-01-20T13:02:03;16.60;;;12.03;;
9324;SDS011;4701;51.566;6.776;2023-01-20T13:04:35;17.80;;;13.27;;
9324;SDS011;4701;51.566;6.776;2023-01-20T13:06:58;17.80;;;12.97;;
9324;SDS011;4701;51.566;6.776;2023-01-20T13:11:43;29.80;;;20.17;;
9324;SDS011;4701;51.566;6.776;2023-01-20T13:14:03;20.40;;;13.20;;
9324;SDS011;4701;51.566;6.776;2023-01-20T13:16:14;21.67;;;13.40;;
9324;SDS011;4701;51.566;6.776;2023-01-20T13:18:27;20.07;;;13.23;;
9324;SDS011;4701;51.566;6.776;2023-01-20T13:20:42;19.97;;;13.60;;
9324;SDS011;4701;51.566;6.776;2023-01-20T13:22:45;19.60;;;12.47;;
9324;SDS011;4701;51.566;6.776;2023-01-20T13:24:49;16.47;;;12.60;;
9324;SDS011;4701;51.566;6.776;2023-01-20T13:26:53;16.50;;;12.07;;
9324;SDS011;4701;51.566;6.776;2023-01-20T13:28:56;16.47;;;11.73;;
9324;SDS011;4701;51.566;6.776;2023-01-20T13:31:26;16.40;;;11.43;;
9324;SDS011;4701;51.566;6.776;2023-01-20T13:33:33;16.63;;;11.27;;
9324;SDS011;4701;51.566;6.776;2023-01-20T13:35:48;16.77;;;11.90;;
9324;SDS011;4701;51.566;6.776;2023-01-20T13:37:50;16.47;;;11.77;;
9324;SDS011;4701;51.566;6.776;2023-01-20T13:39:54;15.87;;;11.13;;
9324;SDS011;4701;51.566;6.776;2023-01-20T13:41:58;15.47;;;11.33;;
9324;SDS011;4701;51.566;6.776;2023-01-20T13:44:00;16.73;;;11.43;;
9324;SDS011;4701;51.566;6.776;2023-01-20T13:46:39;16.83;;;9.90;;
9324;SDS011;4701;51.566;6.776;2023-01-20T13:53:45;16.90;;;10.57;;
9324;SDS011;4701;51.566;6.776;2023-01-20T13:55:51;15.07;;;10.37;;
9324;SDS011;4701;51.566;6.776;2023-01-20T13:57:57;13.20;;;10.30;;
9324;SDS011;4701;51.566;6.776;2023-01-20T13:59:59;16.20;;;10.17;;
9324;SDS011;4701;51.566;6.776;2023-01-20T14:02:16;15.00;;;9.60;;
9324;SDS011;4701;51.566;6.776;2023-01-20T14:04:18;14.20;;;10.73;;
9324;SDS011;4701;51.566;6.776;2023-01-20T14:06:21;16.90;;;10.17;;
9324;SDS011;4701;51.566;6.776;2023-01-20T14:08:26;14.53;;;10.13;;
9324;SDS011;4701;51.566;6.776;2023-01-20T14:10:29;15.73;;;9.67;;
9324;SDS011;4701;51.566;6.776;2023-01-20T14:12:38;14.93;;;11.07;;
9324;SDS011;4701;51.566;6.776;2023-01-20T14:14:40;14.73;;;10.33;;
9324;SDS011;4701;51.566;6.776;2023-01-20T14:16:43;16.17;;;10.73;;
9324;SDS011;4701;51.566;6.776;2023-01-20T14:18:46;15.50;;;10.17;;
9324;SDS011;4701;51.566;6.776;2023-01-20T14:20:56;20.23;;;12.90;;
9324;SDS011;4701;51.566;6.776;2023-01-20T14:25:28;15.83;;;10.17;;
9324;SDS011;4701;51.566;6.776;2023-01-20T14:27:31;18.47;;;9.97;;
9324;SDS011;4701;51.566;6.776;2023-01-20T14:29:36;16.93;;;9.50;;
9324;SDS011;4701;51.566;6.776;2023-01-20T14:31:38;19.83;;;11.00;;
9324;SDS011;4701;51.566;6.776;2023-01-20T14:33:43;14.27;;;9.80;;
9324;SDS011;4701;51.566;6.776;2023-01-20T14:35:47;15.67;;;10.43;;
9324;SDS011;4701;51.566;6.776;2023-01-20T14:37:49;15.80;;;10.23;;
9324;SDS011;4701;51.566;6.776;2023-01-20T14:39:52;14.07;;;9.20;;
9324;SDS011;4701;51.566;6.776;2023-01-20T14:42:01;13.80;;;9.83;;
9324;SDS011;4701;51.566;6.776;2023-01-20T14:44:11;15.07;;;9.67;;
9324;SDS011;4701;51.566;6.776;2023-01-20T14:46:17;14.13;;;9.20;;
9324;SDS011;4701;51.566;6.776;2023-01-20T14:48:19;15.70;;;9.57;;
9324;SDS011;4701;51.566;6.776;2023-01-20T14:50:23;15.60;;;9.73;;
9324;SDS011;4701;51.566;6.776;2023-01-20T14:52:27;15.53;;;10.33;;
9324;SDS011;4701;51.566;6.776;2023-01-20T14:54:35;15.63;;;9.87;;
9324;SDS011;4701;51.566;6.776;2023-01-20T14:56:39;11.57;;;8.67;;
9324;SDS011;4701;51.566;6.776;2023-01-20T14:58:48;14.67;;;9.20;;
9324;SDS011;4701;51.566;6.776;2023-01-20T15:00:54;12.90;;;9.40;;
9324;SDS011;4701;51.566;6.776;2023-01-20T15:03:03;17.70;;;9.60;;
9324;SDS011;4701;51.566;6.776;2023-01-20T15:05:21;13.63;;;9.97;;
9324;SDS011;4701;51.566;6.776;2023-01-20T15:07:35;15.97;;;8.47;;
9324;SDS011;4701;51.566;6.776;2023-01-20T15:09:40;10.37;;;8.50;;
9324;SDS011;4701;51.566;6.776;2023-01-20T15:11:42;15.43;;;8.97;;
9324;SDS011;4701;51.566;6.776;2023-01-20T15:16:14;10.13;;;8.13;;
9324;SDS011;4701;51.566;6.776;2023-01-20T15:18:21;13.27;;;9.17;;
9324;SDS011;4701;51.566;6.776;2023-01-20T15:20:26;12.83;;;8.67;;
9324;SDS011;4701;51.566;6.776;2023-01-20T15:22:32;19.97;;;10.23;;
9324;SDS011;4701;51.566;6.776;2023-01-20T15:24:34;11.03;;;8.83;;
9324;SDS011;4701;51.566;6.776;2023-01-20T15:26:39;15.53;;;9.60;;
9324;SDS011;4701;51.566;6.776;2023-01-20T15:28:42;15.33;;;8.40;;
9324;SDS011;4701;51.566;6.776;2023-01-20T15:30:44;15.20;;;10.50;;
9324;SDS011;4701;51.566;6.776;2023-01-20T15:32:47;14.30;;;9.47;;
9324;SDS011;4701;51.566;6.776;2023-01-20T15:34:49;13.20;;;8.57;;
9324;SDS011;4701;51.566;6.776;2023-01-20T15:36:51;13.20;;;9.23;;
9324;SDS011;4701;51.566;6.776;2023-01-20T15:38:55;15.33;;;9.27;;
9324;SDS011;4701;51.566;6.776;2023-01-20T15:40:57;10.77;;;8.83;;
9324;SDS011;4701;51.566;6.776;2023-01-20T15:42:59;11.43;;;8.30;;
9324;SDS011;4701;51.566;6.776;2023-01-20T15:45:01;14.00;;;8.87;;
9324;SDS011;4701;51.566;6.776;2023-01-20T15:47:04;10.77;;;8.17;;
9324;SDS011;4701;51.566;6.776;2023-01-20T15:49:13;15.10;;;9.10;;
9324;SDS011;4701;51.566;6.776;2023-01-20T15:51:15;12.77;;;8.37;;
9324;SDS011;4701;51.566;6.776;2023-01-20T15:53:18;11.17;;;7.40;;
9324;SDS011;4701;51.566;6.776;2023-01-20T15:55:21;13.10;;;8.43;;
9324;SDS011;4701;51.566;6.776;2023-01-20T15:57:24;9.33;;;7.90;;
9324;SDS011;4701;51.566;6.776;2023-01-20T15:59:25;14.07;;;8.07;;
9324;SDS011;4701;51.566;6.776;2023-01-20T16:01:29;10.43;;;8.23;;
9324;SDS011;4701;51.566;6.776;2023-01-20T16:03:31;17.33;;;9.27;;
9324;SDS011;4701;51.566;6.776;2023-01-20T16:05:34;12.00;;;8.00;;
9324;SDS011;4701;51.566;6.776;2023-01-20T16:07:37;9.73;;;7.53;;
9324;SDS011;4701;51.566;6.776;2023-01-20T16:09:39;14.30;;;8.13;;
9324;SDS011;4701;51.566;6.776;2023-01-20T16:11:43;10.27;;;7.10;;
9324;SDS011;4701;51.566;6.776;2023-01-20T16:13:46;10.93;;;7.70;;
9324;SDS011;4701;51.566;6.776;2023-01-20T16:15:48;10.23;;;7.63;;
9324;SDS011;4701;51.566;6.776;2023-01-20T16:17:50;10.70;;;7.67;;
9324;SDS011;4701;51.566;6.776;2023-01-20T16:19:53;11.30;;;7.80;;
9324;SDS011;4701;51.566;6.776;2023-01-20T16:21:55;9.80;;;8.00;;
9324;SDS011;4701;51.566;6.776;2023-01-20T16:23:57;10.77;;;7.40;;
9324;SDS011;4701;51.566;6.776;2023-01-20T16:25:59;10.57;;;6.97;;
9324;SDS011;4701;51.566;6.776;2023-01-20T16:28:04;11.90;;;8.13;;
9324;SDS011;4701;51.566;6.776;2023-01-20T16:30:13;10.80;;;7.27;;
9324;SDS011;4701;51.566;6.776;2023-01-20T16:32:16;10.63;;;7.17;;
9324;SDS011;4701;51.566;6.776;2023-01-20T16:34:18;12.07;;;7.93;;
9324;SDS011;4701;51.566;6.776;2023-01-20T16:36:21;13.03;;;7.93;;
9324;SDS011;4701;51.566;6.776;2023-01-20T16:38:25;10.37;;;7.30;;
9324;SDS011;4701;51.566;6.776;2023-01-20T16:40:27;10.53;;;7.20;;
9324;SDS011;4701;51.566;6.776;2023-01-20T16:42:30;10.80;;;7.80;;
9324;SDS011;4701;51.566;6.776;2023-01-20T16:44:33;15.17;;;7.40;;
9324;SDS011;4701;51.566;6.776;2023-01-20T16:46:36;12.57;;;7.93;;
9324;SDS011;4701;51.566;6.776;2023-01-20T16:48:38;12.57;;;7.80;;
9324;SDS011;4701;51.566;6.776;2023-01-20T16:50:40;13.17;;;8.63;;
9324;SDS011;4701;51.566;6.776;2023-01-20T16:52:42;28.47;;;19.63;;
9324;SDS011;4701;51.566;6.776;2023-01-20T16:54:44;14.10;;;9.90;;
9324;SDS011;4701;51.566;6.776;2023-01-20T16:56:46;19.43;;;12.47;;
9324;SDS011;4701;51.566;6.776;2023-01-20T16:58:48;11.63;;;8.97;;
9324;SDS011;4701;51.566;6.776;2023-01-20T17:00:52;12.77;;;8.50;;
9324;SDS011;4701;51.566;6.776;2023-01-20T17:02:54;11.10;;;7.70;;
9324;SDS011;4701;51.566;6.776;2023-01-20T17:04:56;13.83;;;7.60;;
9324;SDS011;4701;51.566;6.776;2023-01-20T17:06:58;11.33;;;8.40;;
9324;SDS011;4701;51.566;6.776;2023-01-20T17:09:02;11.77;;;8.17;;
9324;SDS011;4701;51.566;6.776;2023-01-20T17:11:05;10.43;;;8.07;;
9324;SDS011;4701;51.566;6.776;2023-01-20T17:13:07;11.27;;;7.33;;
9324;SDS011;4701;51.566;6.776;2023-01-20T17:15:09;13.07;;;8.17;;
9324;SDS011;4701;51.566;6.776;2023-01-20T17:17:13;11.03;;;8.00;;
9324;SDS011;4701;51.566;6.776;2023-01-20T17:19:14;14.87;;;11.03;;
9324;SDS011;4701;51.566;6.776;2023-01-20T17:21:18;25.10;;;14.80;;
9324;SDS011;4701;51.566;6.776;2023-01-20T17:23:21;21.93;;;15.13;;
9324;SDS011;4701;51.566;6.776;2023-01-20T17:25:23;12.97;;;8.27;;
9324;SDS011;4701;51.566;6.776;2023-01-20T17:27:25;14.50;;;7.60;;
9324;SDS011;4701;51.566;6.776;2023-01-20T17:29:26;8.87;;;6.73;;
9324;SDS011;4701;51.566;6.776;2023-01-20T17:31:28;9.77;;;7.30;;
9324;SDS011;4701;51.566;6.776;2023-01-20T17:33:34;12.13;;;7.97;;
9324;SDS011;4701;51.566;6.776;2023-01-20T17:35:36;11.47;;;7.30;;
9324;SDS011;4701;51.566;6.776;2023-01-20T17:37:38;11.17;;;7.93;;
9324;SDS011;4701;51.566;6.776;2023-01-20T17:39:41;9.87;;;7.63;;
9324;SDS011;4701;51.566;6.776;2023-01-20T17:41:43;10.67;;;7.17;;
9324;SDS011;4701;51.566;6.776;2023-01-20T17:43:45;14.93;;;8.70;;
9324;SDS011;4701;51.566;6.776;2023-01-20T17:45:46;12.17;;;7.67;;
9324;SDS011;4701;51.566;6.776;2023-01-20T17:47:48;11.27;;;8.10;;
9324;SDS011;4701;51.566;6.776;2023-01-20T17:49:53;12.73;;;8.33;;
9324;SDS011;4701;51.566;6.776;2023-01-20T17:51:54;13.10;;;8.53;;
9324;SDS011;4701;51.566;6.776;2023-01-20T17:53:56;15.30;;;8.13;;
9324;SDS011;4701;51.566;6.776;2023-01-20T17:55:59;12.50;;;7.80;;
9324;SDS011;4701;51.566;6.776;2023-01-20T17:58:00;13.83;;;7.73;;
9324;SDS011;4701;51.566;6.776;2023-01-20T18:00:03;11.50;;;7.60;;
9324;SDS011;4701;51.566;6.776;2023-01-20T18:02:05;12.57;;;7.77;;
9324;SDS011;4701;51.566;6.776;2023-01-20T18:04:09;16.37;;;8.17;;
9324;SDS011;4701;51.566;6.776;2023-01-20T18:06:13;13.00;;;7.83;;
9324;SDS011;4701;51.566;6.776;2023-01-20T18:08:15;15.27;;;8.83;;
9324;SDS011;4701;51.566;6.776;2023-01-20T18:10:17;15.90;;;9.33;;
9324;SDS011;4701;51.566;6.776;2023-01-20T18:12:19;15.87;;;9.60;;
9324;SDS011;4701;51.566;6.776;2023-01-20T18:14:21;15.20;;;9.60;;
9324;SDS011;4701;51.566;6.776;2023-01-20T18:16:25;13.80;;;9.17;;
9324;SDS011;4701;51.566;6.776;2023-01-20T18:18:28;13.93;;;8.67;;
9324;SDS011;4701;51.566;6.776;2023-01-20T18:20:30;13.70;;;8.93;;
9324;SDS011;4701;51.566;6.776;2023-01-20T18:22:33;12.97;;;7.90;;
9324;SDS011;4701;51.566;6.776;2023-01-20T18:24:35;15.57;;;9.00;;
9324;SDS011;4701;51.566;6.776;2023-01-20T18:26:38;16.30;;;8.93;;
9324;SDS011;4701;51.566;6.776;2023-01-20T18:28:42;14.97;;;9.17;;
9324;SDS011;4701;51.566;6.776;2023-01-20T18:30:46;13.37;;;9.60;;
9324;SDS011;4701;51.566;6.776;2023-01-20T18:32:48;15.03;;;9.83;;
9324;SDS011;4701;51.566;6.776;2023-01-20T18:34:50;18.07;;;9.87;;
9324;SDS011;4701;51.566;6.776;2023-01-20T18:36:52;15.03;;;9.60;;
9324;SDS011;4701;51.566;6.776;2023-01-20T18:38:59;17.07;;;9.63;;
9324;SDS011;4701;51.566;6.776;2023-01-20T18:41:03;14.30;;;10.03;;
9324;SDS011;4701;51.566;6.776;2023-01-20T18:43:05;15.63;;;10.10;;
9324;SDS011;4701;51.566;6.776;2023-01-20T18:45:07;16.63;;;10.43;;
9324;SDS011;4701;51.566;6.776;2023-01-20T18:47:09;15.20;;;10.20;;
9324;SDS011;4701;51.566;6.776;2023-01-20T18:49:11;15.60;;;9.47;;
9324;SDS011;4701;51.566;6.776;2023-01-20T18:51:14;15.60;;;9.80;;
9324;SDS011;4701;51.566;6.776;2023-01-20T18:53:16;15.63;;;10.20;;
9324;SDS011;4701;51.566;6.776;2023-01-20T18:55:20;13.53;;;9.73;;
9324;SDS011;4701;51.566;6.776;2023-01-20T18:57:21;17.27;;;9.63;;
9324;SDS011;4701;51.566;6.776;2023-01-20T18:59:24;13.23;;;9.03;;
9324;SDS011;4701;51.566;6.776;2023-01-20T19:01:27;13.03;;;8.83;;
9324;SDS011;4701;51.566;6.776;2023-01-20T19:03:31;18.47;;;11.33;;
9324;SDS011;4701;51.566;6.776;2023-01-20T19:05:34;16.73;;;10.40;;
9324;SDS011;4701;51.566;6.776;2023-01-20T19:07:36;18.20;;;11.07;;
9324;SDS011;4701;51.566;6.776;2023-01-20T19:09:37;19.60;;;12.83;;
9324;SDS011;4701;51.566;6.776;2023-01-20T19:11:40;21.33;;;14.17;;
9324;SDS011;4701;51.566;6.776;2023-01-20T19:13:43;20.23;;;13.57;;
9324;SDS011;4701;51.566;6.776;2023-01-20T19:15:45;19.77;;;14.57;;
9324;SDS011;4701;51.566;6.776;2023-01-20T19:17:47;19.83;;;12.77;;
9324;SDS011;4701;51.566;6.776;2023-01-20T19:19:51;43.13;;;27.67;;
9324;SDS011;4701;51.566;6.776;2023-01-20T19:21:53;45.77;;;27.57;;
9324;SDS011;4701;51.566;6.776;2023-01-20T19:23:55;47.90;;;28.70;;
9324;SDS011;4701;51.566;6.776;2023-01-20T19:26:00;54.30;;;30.73;;
9324;SDS011;4701;51.566;6.776;2023-01-20T19:28:04;37.70;;;20.20;;
9324;SDS011;4701;51.566;6.776;2023-01-20T19:30:08;29.67;;;17.70;;
9324;SDS011;4701;51.566;6.776;2023-01-20T19:32:12;24.97;;;15.53;;
9324;SDS011;4701;51.566;6.776;2023-01-20T19:34:14;30.70;;;17.67;;
9324;SDS011;4701;51.566;6.776;2023-01-20T19:36:16;32.87;;;19.50;;
9324;SDS011;4701;51.566;6.776;2023-01-20T19:38:19;29.23;;;17.10;;
9324;SDS011;4701;51.566;6.776;2023-01-20T19:40:20;25.27;;;16.03;;
9324;SDS011;4701;51.566;6.776;2023-01-20T19:42:22;22.77;;;13.93;;
9324;SDS011;4701;51.566;6.776;2023-01-20T19:44:26;20.80;;;13.77;;
9324;SDS011;4701;51.566;6.776;2023-01-20T19:46:28;18.47;;;12.83;;
9324;SDS011;4701;51.566;6.776;2023-01-20T19:48:31;20.33;;;12.47;;
9324;SDS011;4701;51.566;6.776;2023-01-20T19:50:33;17.03;;;12.63;;
9324;SDS011;4701;51.566;6.776;2023-01-20T19:52:36;18.57;;;12.53;;
9324;SDS011;4701;51.566;6.776;2023-01-20T19:54:37;22.83;;;14.20;;